sensor_id;sensor_type;location;lat;lon;timestamp;pressure;altitude;pressure_sealevel;temperature;humidity
21730;BME280;11027;51.030;13.812;2023-04-29T00:00:53;99705.97;;;12.80;78.24
21730;BME280;11027;51.030;13.812;2023-04-29T00:03:19;99711.88;;;12.77;78.26
21730;BME280;11027;51.030;13.812;2023-04-29T00:05:44;99699.25;;;12.76;78.32
21730;BME280;11027;51.030;13.812;2023-04-29T00:08:10;99694.22;;;12.73;78.58
21730;BME280;11027;51.030;13.812;2023-04-29T00:10:36;99701.78;;;12.71;79.00
21730;BME280;11027;51.030;13.812;2023-04-29T00:13:01;99695.25;;;12.72;78.88
21730;BME280;11027;51.030;13.812;2023-04-29T00:15:27;99703.44;;;12.72;78.92
21730;BME280;11027;51.030;13.812;2023-04-29T00:17:52;99697.97;;;12.72;78.90
21730;BME280;11027;51.030;13.812;2023-04-29T00:20:17;99692.50;;;12.72;79.48
21730;BME280;11027;51.030;13.812;2023-04-29T00:22:43;99700.06;;;12.70;79.59
21730;BME280;11027;51.030;13.812;2023-04-29T00:25:08;99690.84;;;12.71;79.48
21730;BME280;11027;51.030;13.812;2023-04-29T00:27:33;99690.84;;;12.71;79.61
21730;BME280;11027;51.030;13.812;2023-04-29T00:29:59;99694.84;;;12.75;79.89
21730;BME280;11027;51.030;13.812;2023-04-29T00:32:24;99689.38;;;12.75;79.66
21730;BME280;11027;51.030;13.812;2023-04-29T00:34:49;99693.78;;;12.76;80.06
21730;BME280;11027;51.030;13.812;2023-04-29T00:37:15;99696.72;;;12.74;79.64
21730;BME280;11027;51.030;13.812;2023-04-29T00:39:41;99683.28;;;12.73;79.63
21730;BME280;11027;51.030;13.812;2023-04-29T00:42:07;99684.94;;;12.74;79.50
21730;BME280;11027;51.030;13.812;2023-04-29T00:44:32;99680.75;;;12.78;79.75
21730;BME280;11027;51.030;13.812;2023-04-29T00:46:57;99679.72;;;12.79;79.47
21730;BME280;11027;51.030;13.812;2023-04-29T00:49:23;99683.47;;;12.78;79.66
21730;BME280;11027;51.030;13.812;2023-04-29T00:51:48;99673.63;;;12.77;79.50
21730;BME280;11027;51.030;13.812;2023-04-29T00:54:14;99681.19;;;12.75;79.30
21730;BME280;11027;51.030;13.812;2023-04-29T00:56:40;99680.31;;;12.74;79.65
21730;BME280;11027;51.030;13.812;2023-04-29T00:59:09;99681.19;;;12.75;79.67
21730;BME280;11027;51.030;13.812;2023-04-29T01:01:37;99681.56;;;12.72;79.31
21730;BME280;11027;51.030;13.812;2023-04-29T01:04:04;99689.97;;;12.70;79.62
21730;BME280;11027;51.030;13.812;2023-04-29T01:11:54;99684.09;;;12.67;79.72
21730;BME280;11027;51.030;13.812;2023-04-29T01:14:23;99677.78;;;12.66;79.64
21730;BME280;11027;51.030;13.812;2023-04-29T01:16:58;99676.94;;;12.66;79.71
21730;BME280;11027;51.030;13.812;2023-04-29T01:22:12;99679.03;;;12.64;79.73
21730;BME280;11027;51.030;13.812;2023-04-29T01:24:39;99671.03;;;12.62;79.51
21730;BME280;11027;51.030;13.812;2023-04-29T01:27:20;99671.03;;;12.62;79.58
21730;BME280;11027;51.030;13.812;2023-04-29T01:30:01;99678.22;;;12.70;79.45
21730;BME280;11027;51.030;13.812;2023-04-29T01:32:42;99681.19;;;12.75;79.26
21730;BME280;11027;51.030;13.812;2023-04-29T01:35:21;99677.81;;;12.79;78.67
21730;BME280;11027;51.030;13.812;2023-04-29T01:38:12;99680.34;;;12.81;78.61
21730;BME280;11027;51.030;13.812;2023-04-29T01:40:49;99691.28;;;12.81;78.85
21730;BME280;11027;51.030;13.812;2023-04-29T01:43:22;99697.16;;;12.78;78.77
21730;BME280;11027;51.030;13.812;2023-04-29T01:45:48;99694.22;;;12.73;78.86
21730;BME280;11027;51.030;13.812;2023-04-29T01:48:15;99702.16;;;12.68;79.31
21730;BME280;11027;51.030;13.812;2023-04-29T01:50:41;99703.00;;;12.61;79.84
21730;BME280;11027;51.030;13.812;2023-04-29T01:53:07;99703.19;;;12.60;79.81
21730;BME280;11027;51.030;13.812;2023-04-29T01:55:32;99706.38;;;12.64;79.99
21730;BME280;11027;51.030;13.812;2023-04-29T01:57:57;99698.59;;;12.67;80.17
21730;BME280;11027;51.030;13.812;2023-04-29T02:00:22;99704.06;;;12.74;80.02
21730;BME280;11027;51.030;13.812;2023-04-29T02:02:48;99705.97;;;12.73;79.78
21730;BME280;11027;51.030;13.812;2023-04-29T02:05:13;99714.38;;;12.72;80.17
21730;BME280;11027;51.030;13.812;2023-04-29T02:07:38;99720.66;;;12.66;80.33
21730;BME280;11027;51.030;13.812;2023-04-29T02:10:04;99720.44;;;12.60;80.64
21730;BME280;11027;51.030;13.812;2023-04-29T02:12:29;99728.22;;;12.57;81.22
21730;BME280;11027;51.030;13.812;2023-04-29T02:14:55;99724.00;;;12.54;81.33
21730;BME280;11027;51.030;13.812;2023-04-29T02:17:20;99733.66;;;12.50;81.46
21730;BME280;11027;51.030;13.812;2023-04-29T02:19:45;99741.59;;;12.45;82.14
21730;BME280;11027;51.030;13.812;2023-04-29T02:22:10;99731.13;;;12.49;82.46
21730;BME280;11027;51.030;13.812;2023-04-29T02:24:37;99739.50;;;12.47;82.56
21730;BME280;11027;51.030;13.812;2023-04-29T02:27:02;99736.53;;;12.42;82.73
21730;BME280;11027;51.030;13.812;2023-04-29T02:29:30;99737.34;;;12.36;82.86
21730;BME280;11027;51.030;13.812;2023-04-29T02:31:55;99728.94;;;12.37;83.65
21730;BME280;11027;51.030;13.812;2023-04-29T02:34:21;99736.13;;;12.38;83.56
21730;BME280;11027;51.030;13.812;2023-04-29T02:36:46;99716.78;;;12.40;84.14
21730;BME280;11027;51.030;13.812;2023-04-29T02:39:11;99712.59;;;12.44;83.95
21730;BME280;11027;51.030;13.812;2023-04-29T02:41:36;99718.28;;;12.49;84.01
21730;BME280;11027;51.030;13.812;2023-04-29T02:44:02;99711.38;;;12.53;83.93
21730;BME280;11027;51.030;13.812;2023-04-29T02:46:27;99703.38;;;12.52;84.26
21730;BME280;11027;51.030;13.812;2023-04-29T02:48:53;99696.69;;;12.54;84.35
21730;BME280;11027;51.030;13.812;2023-04-29T02:51:18;99707.19;;;12.57;84.19
21730;BME280;11027;51.030;13.812;2023-04-29T02:53:44;99706.16;;;12.58;84.28
21730;BME280;11027;51.030;13.812;2023-04-29T02:56:09;99710.56;;;12.59;84.29
21730;BME280;11027;51.030;13.812;2023-04-29T02:58:34;99705.72;;;12.61;84.34
21730;BME280;11027;51.030;13.812;2023-04-29T03:00:59;99705.09;;;12.59;84.54
21730;BME280;11027;51.030;13.812;2023-04-29T03:03:25;99706.16;;;12.58;85.01
21730;BME280;11027;51.030;13.812;2023-04-29T03:05:50;99701.31;;;12.60;85.05
21730;BME280;11027;51.030;13.812;2023-04-29T03:08:15;99701.09;;;12.62;85.02
21730;BME280;11027;51.030;13.812;2023-04-29T03:10:41;99693.75;;;12.63;85.23
21730;BME280;11027;51.030;13.812;2023-04-29T03:13:06;99699.22;;;12.63;85.62
21730;BME280;11027;51.030;13.812;2023-04-29T03:15:32;99700.91;;;12.64;85.61
21730;BME280;11027;51.030;13.812;2023-04-29T03:17:57;99695.63;;;12.62;85.84
21730;BME280;11027;51.030;13.812;2023-04-29T03:20:25;99681.56;;;12.58;86.19
21730;BME280;11027;51.030;13.812;2023-04-29T03:22:51;99692.50;;;12.58;86.42
21730;BME280;11027;51.030;13.812;2023-04-29T03:25:16;99687.03;;;12.58;86.79
21730;BME280;11027;51.030;13.812;2023-04-29T03:27:42;99678.59;;;12.53;86.75
21730;BME280;11027;51.030;13.812;2023-04-29T03:30:08;99673.75;;;12.55;87.19
21730;BME280;11027;51.030;13.812;2023-04-29T03:32:33;99679.84;;;12.57;86.95
21730;BME280;11027;51.030;13.812;2023-04-29T03:34:59;99678.81;;;12.58;87.10
21730;BME280;11027;51.030;13.812;2023-04-29T03:37:24;99683.66;;;12.56;87.57
21730;BME280;11027;51.030;13.812;2023-04-29T03:39:49;99686.16;;;12.51;87.98
21730;BME280;11027;51.030;13.812;2023-04-29T03:42:15;99677.31;;;12.49;88.32
21730;BME280;11027;51.030;13.812;2023-04-29T03:44:40;99683.84;;;12.48;88.55
21730;BME280;11027;51.030;13.812;2023-04-29T03:47:05;99679.22;;;12.49;88.63
21730;BME280;11027;51.030;13.812;2023-04-29T03:49:31;99682.97;;;12.48;88.74
21730;BME280;11027;51.030;13.812;2023-04-29T03:51:56;99683.63;;;12.50;88.70
21730;BME280;11027;51.030;13.812;2023-04-29T03:54:21;99679.22;;;12.55;88.59
21730;BME280;11027;51.030;13.812;2023-04-29T03:56:47;99679.84;;;12.57;88.71
21730;BME280;11027;51.030;13.812;2023-04-29T03:59:12;99682.41;;;12.59;88.23
21730;BME280;11027;51.030;13.812;2023-04-29T04:01:37;99675.03;;;12.59;88.66
21730;BME280;11027;51.030;13.812;2023-04-29T04:04:03;99678.19;;;12.56;88.63
21730;BME280;11027;51.030;13.812;2023-04-29T04:06:28;99679.41;;;12.54;88.82
21730;BME280;11027;51.030;13.812;2023-04-29T04:08:53;99681.97;;;12.55;89.02
21730;BME280;11027;51.030;13.812;2023-04-29T04:11:18;99682.59;;;12.57;88.90
21730;BME280;11027;51.030;13.812;2023-04-29T04:13:44;99684.06;;;12.60;89.29
21730;BME280;11027;51.030;13.812;2023-04-29T04:16:09;99678.19;;;12.63;88.92
21730;BME280;11027;51.030;13.812;2023-04-29T04:18:36;99680.72;;;12.65;88.99
21730;BME280;11027;51.030;13.812;2023-04-29T04:21:05;99682.84;;;12.69;89.03
21730;BME280;11027;51.030;13.812;2023-04-29T04:23:31;99689.78;;;12.72;88.84
21730;BME280;11027;51.030;13.812;2023-04-29T04:25:56;99682.84;;;12.76;89.12
21730;BME280;11027;51.030;13.812;2023-04-29T04:28:22;99685.78;;;12.74;89.34
21730;BME280;11027;51.030;13.812;2023-04-29T04:30:47;99690.41;;;12.74;89.51
21730;BME280;11027;51.030;13.812;2023-04-29T04:33:12;99685.78;;;12.74;89.71
21730;BME280;11027;51.030;13.812;2023-04-29T04:35:38;99689.16;;;12.76;90.13
21730;BME280;11027;51.030;13.812;2023-04-29T04:38:03;99686.66;;;12.81;89.91
21730;BME280;11027;51.030;13.812;2023-04-29T04:40:29;99689.19;;;12.83;90.05
21730;BME280;11027;51.030;13.812;2023-04-29T04:42:54;99692.56;;;12.85;89.81
21730;BME280;11027;51.030;13.812;2023-04-29T04:45:20;99688.34;;;12.89;89.93
21730;BME280;11027;51.030;13.812;2023-04-29T04:47:46;99686.69;;;12.95;89.52
21730;BME280;11027;51.030;13.812;2023-04-29T04:50:11;99696.34;;;12.97;89.67
21730;BME280;11027;51.030;13.812;2023-04-29T04:52:36;99699.72;;;12.99;89.65
21730;BME280;11027;51.030;13.812;2023-04-29T04:55:01;99692.16;;;13.01;89.58
21730;BME280;11027;51.030;13.812;2023-04-29T04:57:27;99703.94;;;13.02;89.53
21730;BME280;11027;51.030;13.812;2023-04-29T04:59:52;99693.81;;;13.02;89.72
21730;BME280;11027;51.030;13.812;2023-04-29T05:02:17;99698.25;;;13.04;89.81
21730;BME280;11027;51.030;13.812;2023-04-29T05:04:43;99704.38;;;13.06;89.31
21730;BME280;11027;51.030;13.812;2023-04-29T05:07:08;99693.81;;;13.02;89.38
21730;BME280;11027;51.030;13.812;2023-04-29T05:09:34;99692.16;;;13.01;89.84
21730;BME280;11027;51.030;13.812;2023-04-29T05:12:00;99708.56;;;13.01;90.08
21730;BME280;11027;51.030;13.812;2023-04-29T05:14:25;99709.84;;;13.06;89.98
21730;BME280;11027;51.030;13.812;2023-04-29T05:16:51;99710.47;;;13.08;90.34
21730;BME280;11027;51.030;13.812;2023-04-29T05:19:17;99712.13;;;13.09;90.49
21730;BME280;11027;51.030;13.812;2023-04-29T05:21:42;99713.84;;;13.10;90.38
21730;BME280;11027;51.030;13.812;2023-04-29T05:24:07;99716.56;;;13.10;90.38
21730;BME280;11027;51.030;13.812;2023-04-29T05:26:33;99720.97;;;13.11;90.66
21730;BME280;11027;51.030;13.812;2023-04-29T05:28:58;99721.19;;;13.09;90.56
21730;BME280;11027;51.030;13.812;2023-04-29T05:31:23;99719.69;;;13.07;91.06
21730;BME280;11027;51.030;13.812;2023-04-29T05:33:50;99723.72;;;13.04;91.54
21730;BME280;11027;51.030;13.812;2023-04-29T05:36:15;99731.72;;;13.06;91.55
21730;BME280;11027;51.030;13.812;2023-04-29T05:38:40;99728.78;;;13.07;91.91
21730;BME280;11027;51.030;13.812;2023-04-29T05:41:05;99722.03;;;13.10;92.14
21730;BME280;11027;51.030;13.812;2023-04-29T05:43:31;99726.25;;;13.12;92.20
21730;BME280;11027;51.030;13.812;2023-04-29T05:45:56;99732.16;;;13.16;92.47
21730;BME280;11027;51.030;13.812;2023-04-29T05:48:21;99729.00;;;13.26;92.92
21730;BME280;11027;51.030;13.812;2023-04-29T05:50:46;99722.94;;;13.44;92.84
21730;BME280;11027;51.030;13.812;2023-04-29T05:53:13;99731.78;;;13.59;92.49
21730;BME280;11027;51.030;13.812;2023-04-29T05:55:38;99729.03;;;13.72;92.08
21730;BME280;11027;51.030;13.812;2023-04-29T05:58:03;99729.22;;;13.77;91.43
21730;BME280;11027;51.030;13.812;2023-04-29T06:00:29;99730.72;;;13.80;91.13
21730;BME280;11027;51.030;13.812;2023-04-29T06:02:55;99732.19;;;13.76;90.96
21730;BME280;11027;51.030;13.812;2023-04-29T06:05:21;99743.13;;;13.69;90.76
21730;BME280;11027;51.030;13.812;2023-04-29T06:07:46;99736.00;;;13.68;91.13
21730;BME280;11027;51.030;13.812;2023-04-29T06:10:12;99739.34;;;13.70;91.22
21730;BME280;11027;51.030;13.812;2023-04-29T06:12:37;99743.56;;;13.79;91.22
21730;BME280;11027;51.030;13.812;2023-04-29T06:15:02;99740.63;;;13.88;91.28
21730;BME280;11027;51.030;13.812;2023-04-29T06:17:27;99749.00;;;13.99;91.17
21730;BME280;11027;51.030;13.812;2023-04-29T06:19:54;99746.28;;;14.06;91.02
21730;BME280;11027;51.030;13.812;2023-04-29T06:22:19;99756.16;;;14.07;90.83
21730;BME280;11027;51.030;13.812;2023-04-29T06:24:45;99746.28;;;14.06;90.49
21730;BME280;11027;51.030;13.812;2023-04-29T06:27:11;99751.94;;;14.11;90.73
21730;BME280;11027;51.030;13.812;2023-04-29T06:29:36;99761.41;;;14.15;90.72
21730;BME280;11027;51.030;13.812;2023-04-29T06:32:01;99755.31;;;14.20;90.53
21730;BME280;11027;51.030;13.812;2023-04-29T06:34:27;99757.81;;;14.28;90.37
21730;BME280;11027;51.030;13.812;2023-04-29T06:36:52;99756.94;;;14.34;90.27
21730;BME280;11027;51.030;13.812;2023-04-29T06:39:17;99762.00;;;14.44;90.45
21730;BME280;11027;51.030;13.812;2023-04-29T06:41:43;99756.88;;;14.54;89.93
21730;BME280;11027;51.030;13.812;2023-04-29T06:44:08;99761.53;;;14.60;89.42
21730;BME280;11027;51.030;13.812;2023-04-29T06:46:33;99756.22;;;14.66;89.43
21730;BME280;11027;51.030;13.812;2023-04-29T06:48:58;99766.31;;;14.72;88.90
21730;BME280;11027;51.030;13.812;2023-04-29T06:51:24;99764.19;;;14.74;88.63
21730;BME280;11027;51.030;13.812;2023-04-29T06:53:49;99759.16;;;14.71;88.18
21730;BME280;11027;51.030;13.812;2023-04-29T06:56:14;99762.78;;;14.65;88.00
21730;BME280;11027;51.030;13.812;2023-04-29T06:58:39;99765.31;;;14.59;87.95
21730;BME280;11027;51.030;13.812;2023-04-29T07:01:05;99764.91;;;14.49;87.96
21730;BME280;11027;51.030;13.812;2023-04-29T07:03:32;99767.47;;;14.44;88.49
21730;BME280;11027;51.030;13.812;2023-04-29T07:05:57;99768.94;;;14.40;88.62
21730;BME280;11027;51.030;13.812;2023-04-29T07:08:23;99770.88;;;14.33;89.34
21730;BME280;11027;51.030;13.812;2023-04-29T07:10:55;99785.19;;;14.21;89.63
21730;BME280;11027;51.030;13.812;2023-04-29T07:13:21;99775.09;;;14.15;90.25
21730;BME280;11027;51.030;13.812;2023-04-29T07:15:47;99772.19;;;14.10;90.96
21730;BME280;11027;51.030;13.812;2023-04-29T07:18:12;99773.44;;;14.01;91.43
21730;BME280;11027;51.030;13.812;2023-04-29T07:20:37;99782.31;;;13.96;92.13
21730;BME280;11027;51.030;13.812;2023-04-29T07:23:03;99777.66;;;13.97;92.26
21730;BME280;11027;51.030;13.812;2023-04-29T07:25:28;99781.88;;;13.93;92.59
21730;BME280;11027;51.030;13.812;2023-04-29T07:27:54;99778.94;;;13.88;92.63
21730;BME280;11027;51.030;13.812;2023-04-29T07:30:20;99782.72;;;13.87;92.56
21730;BME280;11027;51.030;13.812;2023-04-29T07:32:45;99800.22;;;13.86;93.09
21730;BME280;11027;51.030;13.812;2023-04-29T07:35:11;99786.94;;;13.69;93.95
21730;BME280;11027;51.030;13.812;2023-04-29T07:37:36;99796.63;;;13.65;95.64
21730;BME280;11027;51.030;13.812;2023-04-29T07:40:03;99801.91;;;13.60;95.96
21730;BME280;11027;51.030;13.812;2023-04-29T07:42:28;99804.00;;;13.58;96.51
21730;BME280;11027;51.030;13.812;2023-04-29T07:44:53;99808.84;;;13.69;96.19
21730;BME280;11027;51.030;13.812;2023-04-29T07:47:18;99804.63;;;13.73;95.77
21730;BME280;11027;51.030;13.812;2023-04-29T07:49:44;99804.63;;;13.80;95.91
21730;BME280;11027;51.030;13.812;2023-04-29T07:52:09;99813.91;;;13.86;95.89
21730;BME280;11027;51.030;13.812;2023-04-29T07:54:35;99819.81;;;13.96;95.59
21730;BME280;11027;51.030;13.812;2023-04-29T07:57:01;99823.16;;;14.11;95.40
21730;BME280;11027;51.030;13.812;2023-04-29T07:59:28;99822.13;;;14.12;94.26
21730;BME280;11027;51.030;13.812;2023-04-29T08:01:53;99818.06;;;14.21;93.96
21730;BME280;11027;51.030;13.812;2023-04-29T08:04:18;99828.41;;;14.33;93.48
21730;BME280;11027;51.030;13.812;2023-04-29T08:06:43;99826.06;;;14.43;92.98
21730;BME280;11027;51.030;13.812;2023-04-29T08:09:09;99826.47;;;14.40;91.70
21730;BME280;11027;51.030;13.812;2023-04-29T08:11:35;99829.44;;;14.45;91.60
21730;BME280;11027;51.030;13.812;2023-04-29T08:14:00;99829.03;;;14.35;90.44
21730;BME280;11027;51.030;13.812;2023-04-29T08:16:25;99832.81;;;14.34;90.62
21730;BME280;11027;51.030;13.812;2023-04-29T08:18:51;99828.59;;;14.31;90.67
21730;BME280;11027;51.030;13.812;2023-04-29T08:21:17;99832.81;;;14.34;90.64
21730;BME280;11027;51.030;13.812;2023-04-29T08:23:42;99844.63;;;14.28;90.35
21730;BME280;11027;51.030;13.812;2023-04-29T08:26:09;99851.59;;;14.17;90.11
21730;BME280;11027;51.030;13.812;2023-04-29T08:28:34;99846.75;;;14.12;90.20
21730;BME280;11027;51.030;13.812;2023-04-29T08:31:00;99855.63;;;14.14;90.56
21730;BME280;11027;51.030;13.812;2023-04-29T08:33:25;99856.88;;;14.18;89.72
21730;BME280;11027;51.030;13.812;2023-04-29T08:35:56;99852.25;;;14.12;89.36
21730;BME280;11027;51.030;13.812;2023-04-29T08:38:22;99857.94;;;14.11;89.36
21730;BME280;11027;51.030;13.812;2023-04-29T08:40:48;99865.09;;;14.12;88.87
21730;BME280;11027;51.030;13.812;2023-04-29T08:43:13;99867.84;;;14.12;89.14
21730;BME280;11027;51.030;13.812;2023-04-29T08:45:42;99859.84;;;14.10;88.89
21730;BME280;11027;51.030;13.812;2023-04-29T08:48:08;99869.72;;;14.11;88.85
21730;BME280;11027;51.030;13.812;2023-04-29T08:50:38;99876.66;;;14.07;87.71
21730;BME280;11027;51.030;13.812;2023-04-29T08:53:11;99875.84;;;14.00;87.85
21730;BME280;11027;51.030;13.812;2023-04-29T08:55:41;99885.53;;;13.96;87.79
21730;BME280;11027;51.030;13.812;2023-04-29T08:58:07;99880.47;;;13.93;88.25
21730;BME280;11027;51.030;13.812;2023-04-29T09:00:34;99886.38;;;13.96;88.41
21730;BME280;11027;51.030;13.812;2023-04-29T09:03:04;99880.69;;;13.98;88.45
21730;BME280;11027;51.030;13.812;2023-04-29T09:05:34;99881.31;;;14.00;88.26
21730;BME280;11027;51.030;13.812;2023-04-29T09:08:00;99885.53;;;14.03;88.72
21730;BME280;11027;51.030;13.812;2023-04-29T09:10:27;99896.69;;;14.01;87.83
21730;BME280;11027;51.030;13.812;2023-04-29T09:12:55;99897.97;;;13.92;87.56
21730;BME280;11027;51.030;13.812;2023-04-29T09:15:22;99900.25;;;13.82;87.90
21730;BME280;11027;51.030;13.812;2023-04-29T09:17:47;99895.19;;;13.72;88.37
21730;BME280;11027;51.030;13.812;2023-04-29T09:22:51;99896.03;;;13.72;88.35
21730;BME280;11027;51.030;13.812;2023-04-29T09:25:17;99894.97;;;13.73;87.76
21730;BME280;11027;51.030;13.812;2023-04-29T09:27:43;99900.88;;;13.70;87.27
21730;BME280;11027;51.030;13.812;2023-04-29T09:30:08;99907.38;;;13.69;87.03
21730;BME280;11027;51.030;13.812;2023-04-29T09:32:35;99909.06;;;13.64;87.02
21730;BME280;11027;51.030;13.812;2023-04-29T09:35:23;99911.19;;;13.75;87.46
21730;BME280;11027;51.030;13.812;2023-04-29T09:37:49;99919.84;;;13.78;87.69
21730;BME280;11027;51.030;13.812;2023-04-29T09:40:33;99918.56;;;13.74;88.17
21730;BME280;11027;51.030;13.812;2023-04-29T09:42:59;99919.59;;;13.73;88.85
21730;BME280;11027;51.030;13.812;2023-04-29T09:45:52;99925.91;;;13.67;88.56
21730;BME280;11027;51.030;13.812;2023-04-29T09:48:17;99927.22;;;13.85;88.82
21730;BME280;11027;51.030;13.812;2023-04-29T09:50:43;99924.72;;;13.90;88.35
21730;BME280;11027;51.030;13.812;2023-04-29T09:53:10;99924.28;;;13.93;87.73
21730;BME280;11027;51.030;13.812;2023-04-29T09:55:58;99932.28;;;13.94;87.94
21730;BME280;11027;51.030;13.812;2023-04-29T09:58:41;99930.38;;;13.95;87.90
21730;BME280;11027;51.030;13.812;2023-04-29T10:01:08;99930.00;;;13.98;87.41
21730;BME280;11027;51.030;13.812;2023-04-29T10:03:36;99937.38;;;14.11;87.25
21730;BME280;11027;51.030;13.812;2023-04-29T10:06:03;99942.44;;;14.27;86.70
21730;BME280;11027;51.030;13.812;2023-04-29T10:08:30;99934.84;;;14.29;85.54
21730;BME280;11027;51.030;13.812;2023-04-29T10:11:03;99951.28;;;14.36;85.30
21730;BME280;11027;51.030;13.812;2023-04-29T10:13:29;99948.97;;;14.39;83.47
21730;BME280;11027;51.030;13.812;2023-04-29T10:16:48;99947.50;;;14.50;82.53
21730;BME280;11027;51.030;13.812;2023-04-29T10:18:53;99953.38;;;14.47;82.17
21730;BME280;11027;51.030;13.812;2023-04-29T10:21:23;99954.88;;;14.43;82.30
21730;BME280;11027;51.030;13.812;2023-04-29T10:23:51;99944.97;;;14.49;81.77
21730;BME280;11027;51.030;13.812;2023-04-29T10:26:18;99963.31;;;14.48;81.73
21730;BME280;11027;51.030;13.812;2023-04-29T10:28:46;99959.31;;;14.44;82.08
21730;BME280;11027;51.030;13.812;2023-04-29T10:31:13;99954.25;;;14.54;82.50
21730;BME280;11027;51.030;13.812;2023-04-29T10:33:39;99951.28;;;14.49;82.06
21730;BME280;11027;51.030;13.812;2023-04-29T10:36:07;99948.75;;;14.48;82.48
21730;BME280;11027;51.030;13.812;2023-04-29T10:38:44;99955.09;;;14.48;82.44
21730;BME280;11027;51.030;13.812;2023-04-29T10:41:19;99960.34;;;14.43;82.28
21730;BME280;11027;51.030;13.812;2023-04-29T10:43:45;99978.69;;;14.29;81.49
21730;BME280;11027;51.030;13.812;2023-04-29T10:46:17;99959.72;;;14.14;81.85
21730;BME280;11027;51.030;13.812;2023-04-29T10:48:43;99968.13;;;14.06;81.86
21730;BME280;11027;51.030;13.812;2023-04-29T10:51:08;99974.03;;;14.16;80.77
21730;BME280;11027;51.030;13.812;2023-04-29T10:53:34;99964.34;;;14.27;80.23
21730;BME280;11027;51.030;13.812;2023-04-29T10:56:06;99971.09;;;14.38;79.30
21730;BME280;11027;51.030;13.812;2023-04-29T10:58:45;99966.25;;;14.53;78.64
21730;BME280;11027;51.030;13.812;2023-04-29T11:01:14;99961.84;;;14.59;77.01
21730;BME280;11027;51.030;13.812;2023-04-29T11:03:51;99981.22;;;14.51;75.75
21730;BME280;11027;51.030;13.812;2023-04-29T11:06:21;99975.53;;;14.46;75.70
21730;BME280;11027;51.030;13.812;2023-04-29T11:08:58;99986.06;;;14.42;75.46
21730;BME280;11027;51.030;13.812;2023-04-29T11:11:25;99996.84;;;14.50;75.39
21730;BME280;11027;51.030;13.812;2023-04-29T11:13:51;99974.50;;;14.60;73.30
21730;BME280;11027;51.030;13.812;2023-04-29T11:16:24;99978.28;;;14.79;72.95
21730;BME280;11027;51.030;13.812;2023-04-29T11:19:14;99970.88;;;14.99;72.14
21730;BME280;11027;51.030;13.812;2023-04-29T11:21:40;99970.16;;;15.24;71.86
21730;BME280;11027;51.030;13.812;2023-04-29T11:24:06;99985.34;;;15.33;71.62
21730;BME280;11027;51.030;13.812;2023-04-29T11:26:33;99998.44;;;15.25;71.25
21730;BME280;11027;51.030;13.812;2023-04-29T11:28:59;99998.50;;;15.11;71.48
21730;BME280;11027;51.030;13.812;2023-04-29T11:31:31;99997.25;;;14.87;71.41
21730;BME280;11027;51.030;13.812;2023-04-29T11:33:57;100003.81;;;14.73;72.26
21730;BME280;11027;51.030;13.812;2023-04-29T11:36:23;100003.19;;;14.77;73.40
21730;BME280;11027;51.030;13.812;2023-04-29T11:38:49;99993.44;;;14.88;73.29
21730;BME280;11027;51.030;13.812;2023-04-29T11:41:15;99996.41;;;14.93;72.43
21730;BME280;11027;51.030;13.812;2023-04-29T11:43:40;100004.81;;;14.98;71.69
21730;BME280;11027;51.030;13.812;2023-04-29T11:46:14;100035.22;;;14.90;69.75
21730;BME280;11027;51.030;13.812;2023-04-29T11:48:46;100015.19;;;14.83;70.17
21730;BME280;11027;51.030;13.812;2023-04-29T11:51:13;100010.78;;;14.89;70.14
21730;BME280;11027;51.030;13.812;2023-04-29T11:53:38;100003.53;;;15.21;70.11
21730;BME280;11027;51.030;13.812;2023-04-29T11:56:04;100016.94;;;15.56;70.01
21730;BME280;11027;51.030;13.812;2023-04-29T11:58:29;100010.59;;;15.55;68.39
21730;BME280;11027;51.030;13.812;2023-04-29T12:00:57;100019.09;;;15.47;68.64
21730;BME280;11027;51.030;13.812;2023-04-29T12:03:22;100024.56;;;15.47;68.75
21730;BME280;11027;51.030;13.812;2023-04-29T12:05:55;100019.94;;;15.34;68.18
21730;BME280;11027;51.030;13.812;2023-04-29T12:08:21;100022.13;;;15.19;67.57
21730;BME280;11027;51.030;13.812;2023-04-29T12:10:50;100028.00;;;15.23;67.79
21730;BME280;11027;51.030;13.812;2023-04-29T12:13:17;100018.47;;;15.38;67.91
21730;BME280;11027;51.030;13.812;2023-04-29T12:15:44;100024.22;;;15.24;67.60
21730;BME280;11027;51.030;13.812;2023-04-29T12:18:11;100048.72;;;15.12;67.91
21730;BME280;11027;51.030;13.812;2023-04-29T12:20:36;100031.44;;;14.78;68.97
21730;BME280;11027;51.030;13.812;2023-04-29T12:23:20;100036.50;;;14.61;70.18
21730;BME280;11027;51.030;13.812;2023-04-29T12:25:53;100028.88;;;14.43;70.95
21730;BME280;11027;51.030;13.812;2023-04-29T12:28:19;100046.59;;;14.40;71.65
21730;BME280;11027;51.030;13.812;2023-04-29T12:30:46;100054.56;;;14.42;71.99
21730;BME280;11027;51.030;13.812;2023-04-29T12:33:24;100059.66;;;14.38;71.98
21730;BME280;11027;51.030;13.812;2023-04-29T12:35:52;100081.53;;;14.18;72.96
21730;BME280;11027;51.030;13.812;2023-04-29T12:38:26;100067.56;;;14.00;74.05
21730;BME280;11027;51.030;13.812;2023-04-29T12:40:52;100073.31;;;14.18;74.07
21730;BME280;11027;51.030;13.812;2023-04-29T12:43:17;100083.19;;;14.19;73.40
21730;BME280;11027;51.030;13.812;2023-04-29T12:45:43;100095.81;;;14.07;73.63
21730;BME280;11027;51.030;13.812;2023-04-29T12:48:09;100097.44;;;13.95;74.41
21730;BME280;11027;51.030;13.812;2023-04-29T12:50:36;100091.53;;;13.91;74.21
21730;BME280;11027;51.030;13.812;2023-04-29T12:53:03;100096.59;;;13.88;73.51
21730;BME280;11027;51.030;13.812;2023-04-29T12:55:31;100103.28;;;13.78;73.87
21730;BME280;11027;51.030;13.812;2023-04-29T12:57:56;100094.16;;;13.65;74.39